Cades, SC

3:20 PM EDT on July 25, 2014 (GMT -0400)
Santee Cooper Regional (KMNI) Elev 105 ft | 33.59 °N, 80.21 °W | Change Station
Active Advisory: Special Statement

Current weather conditions updated 5 minutes ago

Mostly Cloudy
Mostly Cloudy
84 °F
Feels Like 96 °F
N
10
Wind Variable Wind from SW

Today is forecast to be Cooler than yesterday.

Today
High -- | Low -- °F
--% Chance of Precip.
Yesterday
High -- | Low -- °F
Precip. -- in
6:26 AM 8:24 PM
Waning Crescent, 1% visible
Pressure 29.97 in
Visibility 7.0 miles
Clouds Scattered Clouds 2100 ft
Scattered Clouds 2800 ft
Mostly Cloudy 9500 ft
Heat Index 96 °F
Dew Point 79 °F
Humidity 84%
Rainfall 0.51 in
Snow Depth Not available.
UV 5 out of 12
Pollen 3.20 out of 12
Air Quality Not available.
Flu Activity Not available.
METAR KMNI 251915Z AUTO 22009KT 7SM SCT021 SCT028 BKN095 29/26 A2997 RMK AO2 LTG DSNT ALQS

More Conditions Fewer Conditions

Pressure 29.97 in
Visibility 7.0 miles
Clouds Scattered Clouds 2100 ft
Scattered Clouds 2800 ft
Mostly Cloudy 9500 ft
Heat Index 96 °F
Dew Point 79 °F
Humidity 84%
Rainfall 0.51 in
Snow Depth Not available.
UV 5 out of 12
Pollen 3.20 out of 12
Air Quality Not available.
Flu Activity Not available.
METAR KMNI 251915Z AUTO 22009KT 7SM SCT021 SCT028 BKN095 29/26 A2997 RMK AO2 LTG DSNT ALQS

More Conditions Fewer Conditions

10-Day Weather Forecast

Almanac

Astronomy

Jul. 25, 2014 Rise Set
Actual Time 6:26 AM EDT 8:24 PM EDT
Civil Twilight 5:58 AM EDT 8:52 PM EDT
Nautical Twilight 5:24 AM EDT 9:26 PM EDT
Astronomical Twilight 4:48 AM EDT 10:02 PM EDT
Moon 5:22 AM EDT 7:23 PM EDT
Length of Visible Light 14h 54m
Length of Day
13h 58m
Tomorrow will be 1m 23s shorter.
Waning Crescent, 1% of the Moon is Illuminated
Today
Waning Crescent
Jul 26
New
Aug 3
First Quarter
Aug 10
Full
Aug 17
Last Quarter

Today's Extremes

State Highs State Lows

Community

WunderPhotos

Upload Photos

1,737,384 photos uploaded!

Nearby

Snow Depth

Station Depth Elevation
No new snow has been reported.

Earthquake Activity

City Distance Mag. Time & Date
No recent earthquake activity has been reported nearby.
Minimum magnitude displayed is 2.5.

Coastal Water Temperatures

Place Temperature
No Stations Reporting

Nearby Weather Stations

Station Location Temp. Heat Index Dew Point Humidity Wind Precip. Elev Updated Type
The Abbeys, Florence, SC 81.9 °F 90 °F 78 °F 87% ESE  at  1.1 mph - / hr 138 ft 3:19 PM EDT Normal
Savannah Grove, Effingham, SC 83.5 °F 92 °F 76 °F 77% ENE  at  1.7 mph - / hr 138 ft 3:10 PM EDT Normal

Show More Stations Show Fewer Stations